Nancy M — WDF3398 — position and weather

sailwx.info

Track history (hours):
 
Tides and Currents Weather Stations Pressure Air Temp Water Temp Dewpoint Dewpoint Depression Visibility Wind Speed Wind Dir Waves Ship Positions

Nancy M

Owner: MANSON CONSTRUCTION CO., SEATTLE, WA. More information available from US FCC via Universal Licensing System and Coast Guard Vessel Documentation Center.

Last reported at 2017-Apr-27 07:00 UTC. Time now 2017-Apr-27 07:13 UTC.
Position N 47°33' W 122°21'.

Length 24 m; draft 4 m.

Type: Tug. MMSI: 367439390.

Date/timePositionNaut miles runAvg speedWind from/ knotsBaromVisibWave heightAir tempDewpointWater temp
2017-Apr-27 07:00N 47°33' W 122°21'0 0.0
2017-Apr-27 06:30N 47°33' W 122°21'0 0.0
2017-Apr-27 06:00N 47°33' W 122°21'0 0.0
2017-Apr-27 05:30N 47°33' W 122°21'0 0.0
2017-Apr-27 05:00N 47°33' W 122°21'0 0.0
2017-Apr-27 04:30N 47°33' W 122°21'0 0.0
2017-Apr-27 04:00N 47°33' W 122°21'0 0.0
2017-Apr-27 03:30N 47°33' W 122°21'0 0.0
2017-Apr-27 03:00N 47°33' W 122°21'0 0.0
2017-Apr-27 02:30N 47°33' W 122°21'0 0.0
2017-Apr-27 02:00N 47°33' W 122°21'0 0.0
2017-Apr-27 01:30N 47°33' W 122°21'0 0.0
2017-Apr-27 01:00N 47°33' W 122°21'0 0.0
2017-Apr-27 00:30N 47°33' W 122°21'0 0.0
2017-Apr-27 00:00N 47°33' W 122°21'0 0.0
2017-Apr-26 23:30N 47°33' W 122°21'0 0.0
2017-Apr-26 23:00N 47°33' W 122°21'0 0.0
2017-Apr-26 22:31N 47°33' W 122°21'0 0.0
2017-Apr-26 22:00N 47°33' W 122°21'0 0.1
2017-Apr-26 21:30N 47°33' W 122°20'0 0.4
2017-Apr-26 21:01N 47°34' W 122°21'0 0.4
2017-Apr-26 20:31N 47°33' W 122°21'0 0.0
2017-Apr-26 20:00N 47°33' W 122°21'0 0.0
2017-Apr-26 19:30N 47°33' W 122°21'0 0.0
2017-Apr-26 19:00N 47°33' W 122°21'  
2017-Apr-22 09:02N 47°33' W 122°21'0 0.0
2017-Apr-22 09:01N 47°33' W 122°21'0 0.0
2017-Apr-22 08:31N 47°33' W 122°21'1 2.5
2017-Apr-22 08:01N 47°34' W 122°21'2 3.7
2017-Apr-22 07:31N 47°36' W 122°23'0 0.7
2017-Apr-22 07:00N 47°36' W 122°23'1 2.0
2017-Apr-22 06:31N 47°35' W 122°22'2 3.7
2017-Apr-22 06:01N 47°33' W 122°21'0 0.0
2017-Apr-22 05:11N 47°33' W 122°21'0 0.0
2017-Apr-22 04:29N 47°33' W 122°21'0 0.0
2017-Apr-22 03:51N 47°33' W 122°21'0 0.0
2017-Apr-22 03:30N 47°33' W 122°21'0 0.0
2017-Apr-22 02:56N 47°33' W 122°21'0 0.0
2017-Apr-22 02:22N 47°33' W 122°21'0 0.0
2017-Apr-22 01:53N 47°33' W 122°21'0 0.0
2017-Apr-22 01:31N 47°33' W 122°21'0 0.0
2017-Apr-22 01:00N 47°33' W 122°21'0 0.0
2017-Apr-22 00:31N 47°33' W 122°21'0 0.0
2017-Apr-22 00:00N 47°33' W 122°21'0 0.0
2017-Apr-21 23:31N 47°33' W 122°21'0 0.0
2017-Apr-21 23:01N 47°33' W 122°21'0 0.0
2017-Apr-21 22:30N 47°33' W 122°21'0 0.1
2017-Apr-21 22:01N 47°33' W 122°20'0 0.1
2017-Apr-21 21:31N 47°33' W 122°20'0 0.0
2017-Apr-21 21:01N 47°33' W 122°20'2 3.4
2017-Apr-21 20:31N 47°35' W 122°22'1 2.8
2017-Apr-21 20:01N 47°36' W 122°22'3 5.1
2017-Apr-21 19:31N 47°38' W 122°25'3 6.1
2017-Apr-21 19:00N 47°41' W 122°26'3 6.2
2017-Apr-21 18:30N 47°44' W 122°27'3 6.2
2017-Apr-21 18:00N 47°47' W 122°27'3 6.4
2017-Apr-21 17:31N 47°50' W 122°29'3 6.0
2017-Apr-21 17:01N 47°53' W 122°30'3 5.8
2017-Apr-21 16:31N 47°56' W 122°32'16 4.4
2017-Apr-21 13:01N 48°09' W 122°44'1 4.2
2017-Apr-21 12:49N 48°09' W 122°45'1 4.0
2017-Apr-21 12:30N 48°10' W 122°47'2 3.8
2017-Apr-21 12:00N 48°11' W 122°49'3 5.8
2017-Apr-21 11:30N 48°14' W 122°49'4 6.7
2017-Apr-21 10:55N 48°18' W 122°48'3 6.8
2017-Apr-21 10:28N 48°21' W 122°46'3 6.0
2017-Apr-21 09:54N 48°24' W 122°45'3 6.3
2017-Apr-21 09:30N 48°27' W 122°45'3 5.4
2017-Apr-21 09:00N 48°29' W 122°45'2 4.8
2017-Apr-21 08:31N 48°32' W 122°45'2 4.4
2017-Apr-21 08:01N 48°34' W 122°45'2 3.8
2017-Apr-21 07:30N 48°36' W 122°45'2 4.1
2017-Apr-21 07:01N 48°38' W 122°44'2 4.5
2017-Apr-21 06:31N 48°40' W 122°44'3 4.8
2017-Apr-21 05:58N 48°42' W 122°45'3 5.4
2017-Apr-21 05:29N 48°45' W 122°47'3 5.6
2017-Apr-21 04:52N 48°46' W 122°52'3 6.1
2017-Apr-21 04:25N 48°48' W 122°55'3 6.0
2017-Apr-21 03:54N 48°49' W 122°59'3 6.1
2017-Apr-21 03:27N 48°51' W 123°03'3 6.2
2017-Apr-21 02:58N 48°53' W 123°06'4 6.2
2017-Apr-21 02:22N 48°55' W 123°11'2 6.0
2017-Apr-21 02:00N 48°57' W 123°13'3 6.1
2017-Apr-21 01:30N 48°59' W 123°17'3 6.5
2017-Apr-21 00:59N 49°01' W 123°20'3 6.5
2017-Apr-21 00:30N 49°03' W 123°24'3 6.1
2017-Apr-20 23:59N 49°05' W 123°27'3 6.1
2017-Apr-20 23:30N 49°08' W 123°29'4 6.5
2017-Apr-20 22:57N 49°10' W 123°33'3 6.8
2017-Apr-20 22:27N 49°13' W 123°36'3 6.9
2017-Apr-20 21:59N 49°16' W 123°39'3 6.6
2017-Apr-20 21:28N 49°18' W 123°43'3 6.2
2017-Apr-20 21:00N 49°20' W 123°46'3 6.1
2017-Apr-20 20:30N 49°22' W 123°50'3 6.1
2017-Apr-20 20:00N 49°24' W 123°54'3 6.1
2017-Apr-20 19:30N 49°25' W 123°58'3 6.1
2017-Apr-20 19:00N 49°26' W 124°02'3 6.2
2017-Apr-20 18:30N 49°28' W 124°06'3 6.2
2017-Apr-20 18:00N 49°30' W 124°10'3 6.4
2017-Apr-20 17:30N 49°31' W 124°14'3 6.5
2017-Apr-20 17:00N 49°33' W 124°19'3 6.3
2017-Apr-20 16:30N 49°35' W 124°23'3 6.3
2017-Apr-20 16:00N 49°36' W 124°27'3 6.1
2017-Apr-20 15:30N 49°38' W 124°31'3 5.7
2017-Apr-20 14:59N 49°40' W 124°35'3 5.5
2017-Apr-20 14:30N 49°41' W 124°38'6 5.7
2017-Apr-20 13:30N 49°45' W 124°45'3 5.7
2017-Apr-20 13:01N 49°47' W 124°48'3 5.5
2017-Apr-20 12:30N 49°48' W 124°52'3 6.0
2017-Apr-20 12:00N 49°50' W 124°56'3 6.5
2017-Apr-20 11:31N 49°52' W 124°60'3 6.2
2017-Apr-20 11:00N 49°54' W 125°03'3 5.9
2017-Apr-20 10:30N 49°56' W 125°07'3 5.4
2017-Apr-20 09:59N 49°58' W 125°10'2 4.7
2017-Apr-20 09:31N 49°60' W 125°12'2 4.7
2017-Apr-20 09:01N 50°02' W 125°13'3 5.6
2017-Apr-20 08:31N 50°04' W 125°15'3 6.5
2017-Apr-20 08:00N 50°07' W 125°19'3 5.9
2017-Apr-20 07:30N 50°09' W 125°21'2 4.4
2017-Apr-20 07:00N 50°11' W 125°22'2 3.5
2017-Apr-20 06:30N 50°13' W 125°22'2 3.4
2017-Apr-20 06:00N 50°15' W 125°23'2 3.3
2017-Apr-20 05:31N 50°16' W 125°24'2 3.8
2017-Apr-20 05:00N 50°18' W 125°25'2 3.5
2017-Apr-20 04:30N 50°20' W 125°25'1 2.0
2017-Apr-20 04:00N 50°21' W 125°27'70 3.5
2017-Apr-19 08:01N 50°46' W 127°09'0 4.8
2017-Apr-19 07:59N 50°46' W 127°09'3 5.3
2017-Apr-19 07:26N 50°48' W 127°13'2 5.4
2017-Apr-19 06:58N 50°49' W 127°16'2 5.3
2017-Apr-19 06:30N 50°51' W 127°18'3 5.3
2017-Apr-19 06:00N 50°53' W 127°21'3 5.5
2017-Apr-19 05:30N 50°55' W 127°25'3 5.3
2017-Apr-19 05:00N 50°56' W 127°28'3 5.8
2017-Apr-19 04:30N 50°58' W 127°31'3 5.7
2017-Apr-19 04:00N 51°00' W 127°35'3 5.9
2017-Apr-19 03:30N 51°02' W 127°38'3 5.7
2017-Apr-19 03:00N 51°04' W 127°41'3 5.5
2017-Apr-19 02:30N 51°06' W 127°45'3 5.7
2017-Apr-19 02:00N 51°07' W 127°49'3 5.9
2017-Apr-19 01:27N 51°10' W 127°51'17 5.3
2017-Apr-18 22:11N 51°28' W 127°51'1 5.0
2017-Apr-18 22:00N 51°29' W 127°50'3 5.0
2017-Apr-18 21:30N 51°31' W 127°51'  
Track history (hours):
 
Tides and Currents Weather Stations Pressure Air Temp Water Temp Dewpoint Dewpoint Depression Visibility Wind Speed Wind Dir Waves Ship Positions

Nancy M

Owner: MANSON CONSTRUCTION CO., SEATTLE, WA. More information available from US FCC via Universal Licensing System and Coast Guard Vessel Documentation Center.

Last reported at 2017-Apr-27 07:00 UTC. Time now 2017-Apr-27 07:13 UTC.
Position N 47°33' W 122°21'.

Length 24 m; draft 4 m.

Type: Tug. MMSI: 367439390.

Date/timePositionNaut miles runAvg speedWind from/ knotsBaromVisibWave heightAir tempDewpointWater temp
2017-Apr-27 07:00N 47°33' W 122°21'0 0.0
2017-Apr-27 06:30N 47°33' W 122°21'0 0.0
2017-Apr-27 06:00N 47°33' W 122°21'0 0.0
2017-Apr-27 05:30N 47°33' W 122°21'0 0.0
2017-Apr-27 05:00N 47°33' W 122°21'0 0.0
2017-Apr-27 04:30N 47°33' W 122°21'0 0.0
2017-Apr-27 04:00N 47°33' W 122°21'0 0.0
2017-Apr-27 03:30N 47°33' W 122°21'0 0.0
2017-Apr-27 03:00N 47°33' W 122°21'0 0.0
2017-Apr-27 02:30N 47°33' W 122°21'0 0.0
2017-Apr-27 02:00N 47°33' W 122°21'0 0.0
2017-Apr-27 01:30N 47°33' W 122°21'0 0.0
2017-Apr-27 01:00N 47°33' W 122°21'0 0.0
2017-Apr-27 00:30N 47°33' W 122°21'0 0.0
2017-Apr-27 00:00N 47°33' W 122°21'0 0.0
2017-Apr-26 23:30N 47°33' W 122°21'0 0.0
2017-Apr-26 23:00N 47°33' W 122°21'0 0.0
2017-Apr-26 22:31N 47°33' W 122°21'0 0.0
2017-Apr-26 22:00N 47°33' W 122°21'0 0.1
2017-Apr-26 21:30N 47°33' W 122°20'0 0.4
2017-Apr-26 21:01N 47°34' W 122°21'0 0.4
2017-Apr-26 20:31N 47°33' W 122°21'0 0.0
2017-Apr-26 20:00N 47°33' W 122°21'0 0.0
2017-Apr-26 19:30N 47°33' W 122°21'0 0.0
2017-Apr-26 19:00N 47°33' W 122°21'  
2017-Apr-22 09:02N 47°33' W 122°21'0 0.0
2017-Apr-22 09:01N 47°33' W 122°21'0 0.0
2017-Apr-22 08:31N 47°33' W 122°21'1 2.5
2017-Apr-22 08:01N 47°34' W 122°21'2 3.7
2017-Apr-22 07:31N 47°36' W 122°23'0 0.7
2017-Apr-22 07:00N 47°36' W 122°23'1 2.0
2017-Apr-22 06:31N 47°35' W 122°22'2 3.7
2017-Apr-22 06:01N 47°33' W 122°21'0 0.0
2017-Apr-22 05:11N 47°33' W 122°21'0 0.0
2017-Apr-22 04:29N 47°33' W 122°21'0 0.0
2017-Apr-22 03:51N 47°33' W 122°21'0 0.0
2017-Apr-22 03:30N 47°33' W 122°21'0 0.0
2017-Apr-22 02:56N 47°33' W 122°21'0 0.0
2017-Apr-22 02:22N 47°33' W 122°21'0 0.0
2017-Apr-22 01:53N 47°33' W 122°21'0 0.0
2017-Apr-22 01:31N 47°33' W 122°21'0 0.0
2017-Apr-22 01:00N 47°33' W 122°21'0 0.0
2017-Apr-22 00:31N 47°33' W 122°21'0 0.0
2017-Apr-22 00:00N 47°33' W 122°21'0 0.0
2017-Apr-21 23:31N 47°33' W 122°21'0 0.0
2017-Apr-21 23:01N 47°33' W 122°21'0 0.0
2017-Apr-21 22:30N 47°33' W 122°21'0 0.1
2017-Apr-21 22:01N 47°33' W 122°20'0 0.1
2017-Apr-21 21:31N 47°33' W 122°20'0 0.0
2017-Apr-21 21:01N 47°33' W 122°20'2 3.4
2017-Apr-21 20:31N 47°35' W 122°22'1 2.8
2017-Apr-21 20:01N 47°36' W 122°22'3 5.1
2017-Apr-21 19:31N 47°38' W 122°25'3 6.1
2017-Apr-21 19:00N 47°41' W 122°26'3 6.2
2017-Apr-21 18:30N 47°44' W 122°27'3 6.2
2017-Apr-21 18:00N 47°47' W 122°27'3 6.4
2017-Apr-21 17:31N 47°50' W 122°29'3 6.0
2017-Apr-21 17:01N 47°53' W 122°30'3 5.8
2017-Apr-21 16:31N 47°56' W 122°32'16 4.4
2017-Apr-21 13:01N 48°09' W 122°44'1 4.2
2017-Apr-21 12:49N 48°09' W 122°45'1 4.0
2017-Apr-21 12:30N 48°10' W 122°47'2 3.8
2017-Apr-21 12:00N 48°11' W 122°49'3 5.8
2017-Apr-21 11:30N 48°14' W 122°49'4 6.7
2017-Apr-21 10:55N 48°18' W 122°48'3 6.8
2017-Apr-21 10:28N 48°21' W 122°46'3 6.0
2017-Apr-21 09:54N 48°24' W 122°45'3 6.3
2017-Apr-21 09:30N 48°27' W 122°45'3 5.4
2017-Apr-21 09:00N 48°29' W 122°45'2 4.8
2017-Apr-21 08:31N 48°32' W 122°45'2 4.4
2017-Apr-21 08:01N 48°34' W 122°45'2 3.8
2017-Apr-21 07:30N 48°36' W 122°45'2 4.1
2017-Apr-21 07:01N 48°38' W 122°44'2 4.5
2017-Apr-21 06:31N 48°40' W 122°44'3 4.8
2017-Apr-21 05:58N 48°42' W 122°45'3 5.4
2017-Apr-21 05:29N 48°45' W 122°47'3 5.6
2017-Apr-21 04:52N 48°46' W 122°52'3 6.1
2017-Apr-21 04:25N 48°48' W 122°55'3 6.0
2017-Apr-21 03:54N 48°49' W 122°59'3 6.1
2017-Apr-21 03:27N 48°51' W 123°03'3 6.2
2017-Apr-21 02:58N 48°53' W 123°06'4 6.2
2017-Apr-21 02:22N 48°55' W 123°11'2 6.0
2017-Apr-21 02:00N 48°57' W 123°13'3 6.1
2017-Apr-21 01:30N 48°59' W 123°17'3 6.5
2017-Apr-21 00:59N 49°01' W 123°20'3 6.5
2017-Apr-21 00:30N 49°03' W 123°24'3 6.1
2017-Apr-20 23:59N 49°05' W 123°27'3 6.1
2017-Apr-20 23:30N 49°08' W 123°29'4 6.5
2017-Apr-20 22:57N 49°10' W 123°33'3 6.8
2017-Apr-20 22:27N 49°13' W 123°36'3 6.9
2017-Apr-20 21:59N 49°16' W 123°39'3 6.6
2017-Apr-20 21:28N 49°18' W 123°43'3 6.2
2017-Apr-20 21:00N 49°20' W 123°46'3 6.1
2017-Apr-20 20:30N 49°22' W 123°50'3 6.1
2017-Apr-20 20:00N 49°24' W 123°54'3 6.1
2017-Apr-20 19:30N 49°25' W 123°58'3 6.1
2017-Apr-20 19:00N 49°26' W 124°02'3 6.2
2017-Apr-20 18:30N 49°28' W 124°06'3 6.2
2017-Apr-20 18:00N 49°30' W 124°10'3 6.4
2017-Apr-20 17:30N 49°31' W 124°14'3 6.5
2017-Apr-20 17:00N 49°33' W 124°19'3 6.3
2017-Apr-20 16:30N 49°35' W 124°23'3 6.3
2017-Apr-20 16:00N 49°36' W 124°27'3 6.1
2017-Apr-20 15:30N 49°38' W 124°31'3 5.7
2017-Apr-20 14:59N 49°40' W 124°35'3 5.5
2017-Apr-20 14:30N 49°41' W 124°38'6 5.7
2017-Apr-20 13:30N 49°45' W 124°45'3 5.7
2017-Apr-20 13:01N 49°47' W 124°48'3 5.5
2017-Apr-20 12:30N 49°48' W 124°52'3 6.0
2017-Apr-20 12:00N 49°50' W 124°56'3 6.5
2017-Apr-20 11:31N 49°52' W 124°60'3 6.2
2017-Apr-20 11:00N 49°54' W 125°03'3 5.9
2017-Apr-20 10:30N 49°56' W 125°07'3 5.4
2017-Apr-20 09:59N 49°58' W 125°10'2 4.7
2017-Apr-20 09:31N 49°60' W 125°12'2 4.7
2017-Apr-20 09:01N 50°02' W 125°13'3 5.6
2017-Apr-20 08:31N 50°04' W 125°15'3 6.5
2017-Apr-20 08:00N 50°07' W 125°19'3 5.9
2017-Apr-20 07:30N 50°09' W 125°21'2 4.4
2017-Apr-20 07:00N 50°11' W 125°22'2 3.5
2017-Apr-20 06:30N 50°13' W 125°22'2 3.4
2017-Apr-20 06:00N 50°15' W 125°23'2 3.3
2017-Apr-20 05:31N 50°16' W 125°24'2 3.8
2017-Apr-20 05:00N 50°18' W 125°25'2 3.5
2017-Apr-20 04:30N 50°20' W 125°25'1 2.0
2017-Apr-20 04:00N 50°21' W 125°27'70 3.5
2017-Apr-19 08:01N 50°46' W 127°09'0 4.8
2017-Apr-19 07:59N 50°46' W 127°09'3 5.3
2017-Apr-19 07:26N 50°48' W 127°13'2 5.4
2017-Apr-19 06:58N 50°49' W 127°16'2 5.3
2017-Apr-19 06:30N 50°51' W 127°18'3 5.3
2017-Apr-19 06:00N 50°53' W 127°21'3 5.5
2017-Apr-19 05:30N 50°55' W 127°25'3 5.3
2017-Apr-19 05:00N 50°56' W 127°28'3 5.8
2017-Apr-19 04:30N 50°58' W 127°31'3 5.7
2017-Apr-19 04:00N 51°00' W 127°35'3 5.9
2017-Apr-19 03:30N 51°02' W 127°38'3 5.7
2017-Apr-19 03:00N 51°04' W 127°41'3 5.5
2017-Apr-19 02:30N 51°06' W 127°45'3 5.7
2017-Apr-19 02:00N 51°07' W 127°49'3 5.9
2017-Apr-19 01:27N 51°10' W 127°51'17 5.3
2017-Apr-18 22:11N 51°28' W 127°51'1 5.0
2017-Apr-18 22:00N 51°29' W 127°50'3 5.0
2017-Apr-18 21:30N 51°31' W 127°51'  

Dump ship's entire track history